Time;durP1;ratioP1;P1;durP2;ratioP2;P2;SDS_P1;SDS_P2;PMS_P1;PMS_P2;Temp;Humidity;BMP_temperature;BMP_pressure;BME280_temperature;BME280_humidity;BME280_pressure;Samples;Min_cycle;Max_cycle;Signal;HPM_P1;HPM_P2
2022/11/06 00:00:41;;;;;;;2.97;2.78;;;;;;;;;;5080710;28;20216;-62
2022/11/06 00:03:08;;;;;;;2.97;2.78;;;;;;;;;;5079927;28;20236;-62
2022/11/06 00:08:29;;;;;;;2.60;2.40;;;;;;;;;;5070370;28;20199;-62
2022/11/06 00:10:57;;;;;;;2.88;2.67;;;;;;;;;;5079773;28;20269;-63
2022/11/06 00:13:26;;;;;;;3.15;2.92;;;;;;;;;;5079954;28;20257;-62
2022/11/06 00:15:53;;;;;;;2.58;2.38;;;;;;;;;;5080221;28;20212;-62
2022/11/06 00:18:21;;;;;;;2.67;2.47;;;;;;;;;;5079771;28;20220;-62
2022/11/06 00:20:49;;;;;;;2.80;2.60;;;;;;;;;;5085919;28;20227;-62
2022/11/06 00:23:16;;;;;;;2.92;2.72;;;;;;;;;;5100012;28;20285;-63
2022/11/06 00:25:44;;;;;;;3.20;3.00;;;;;;;;;;5099817;28;20569;-62
2022/11/06 00:28:12;;;;;;;2.75;2.55;;;;;;;;;;5100059;28;20589;-62
2022/11/06 00:30:41;;;;;;;2.53;2.33;;;;;;;;;;5100110;28;20546;-62
2022/11/06 00:33:09;;;;;;;3.13;2.83;;;;;;;;;;5099869;28;20191;-61
2022/11/06 00:35:38;;;;;;;2.97;2.70;;;;;;;;;;5099882;28;20200;-62
2022/11/06 00:38:06;;;;;;;2.80;2.60;;;;;;;;;;5099761;28;20204;-62
2022/11/06 00:40:34;;;;;;;2.58;2.38;;;;;;;;;;5099871;28;20211;-61
2022/11/06 00:43:02;;;;;;;2.90;2.70;;;;;;;;;;5099607;28;20231;-62
2022/11/06 00:45:29;;;;;;;2.70;2.50;;;;;;;;;;5099647;28;20211;-63
2022/11/06 00:47:58;;;;;;;2.75;2.50;;;;;;;;;;5099283;28;20250;-61
2022/11/06 00:50:26;;;;;;;2.60;2.40;;;;;;;;;;5098731;28;20297;-62
2022/11/06 00:52:55;;;;;;;2.72;2.53;;;;;;;;;;5099253;28;20619;-61
2022/11/06 00:55:23;;;;;;;2.92;2.72;;;;;;;;;;5099497;28;20600;-62
2022/11/06 00:57:51;;;;;;;2.80;2.60;;;;;;;;;;5099565;28;20210;-61
2022/11/06 01:00:19;;;;;;;2.83;2.63;;;;;;;;;;5099044;28;20218;-62
2022/11/06 01:02:47;;;;;;;2.70;2.50;;;;;;;;;;5099472;28;20224;-62
2022/11/06 01:05:16;;;;;;;2.97;2.67;;;;;;;;;;5099608;28;20210;-62
2022/11/06 01:07:44;;;;;;;3.28;2.85;;;;;;;;;;5098501;28;20492;-62
2022/11/06 01:10:12;;;;;;;3.05;2.85;;;;;;;;;;5099597;28;20196;-62
2022/11/06 01:12:40;;;;;;;2.65;2.45;;;;;;;;;;5099122;28;20573;-61
2022/11/06 01:15:08;;;;;;;3.00;2.80;;;;;;;;;;5098943;28;20265;-61
2022/11/06 01:17:36;;;;;;;2.72;2.50;;;;;;;;;;5099332;28;20562;-62
2022/11/06 01:20:03;;;;;;;3.20;2.90;;;;;;;;;;5099138;28;20204;-63
2022/11/06 01:22:33;;;;;;;2.80;2.60;;;;;;;;;;5078953;28;20259;-62
2022/11/06 01:25:00;;;;;;;2.63;2.42;;;;;;;;;;5079021;28;20212;-62
2022/11/06 01:27:28;;;;;;;2.63;2.40;;;;;;;;;;5078233;28;20211;-62
2022/11/06 01:29:56;;;;;;;2.80;2.60;;;;;;;;;;5078390;28;20234;-62
2022/11/06 01:32:23;;;;;;;2.85;2.65;;;;;;;;;;5078759;28;20212;-62
2022/11/06 01:34:51;;;;;;;2.80;2.60;;;;;;;;;;5078660;28;20204;-61
2022/11/06 01:37:19;;;;;;;3.15;2.85;;;;;;;;;;5078465;28;20204;-62
2022/11/06 01:39:49;;;;;;;2.90;2.70;;;;;;;;;;5077807;28;20212;-62
2022/11/06 01:42:20;;;;;;;2.65;2.45;;;;;;;;;;5078325;28;20204;-61
2022/11/06 01:45:12;;;;;;;3.10;2.90;;;;;;;;;;5077842;28;20283;-61
2022/11/06 01:47:40;;;;;;;2.90;2.70;;;;;;;;;;5078062;28;20465;-61
2022/11/06 01:50:09;;;;;;;2.78;2.58;;;;;;;;;;5078687;28;20226;-63
2022/11/06 01:52:37;;;;;;;2.70;2.50;;;;;;;;;;5078350;28;20295;-61
2022/11/06 01:55:09;;;;;;;3.42;2.78;;;;;;;;;;5077666;28;20215;-61
2022/11/06 01:57:36;;;;;;;3.10;2.85;;;;;;;;;;5078027;28;20628;-62
2022/11/06 02:00:05;;;;;;;3.03;2.83;;;;;;;;;;5078240;28;20223;-61
2022/11/06 02:02:33;;;;;;;3.05;2.85;;;;;;;;;;5078104;28;20299;-62
2022/11/06 02:05:00;;;;;;;2.95;2.75;;;;;;;;;;5078126;28;20286;-62
2022/11/06 02:07:28;;;;;;;2.67;2.47;;;;;;;;;;5078157;28;20296;-62
2022/11/06 02:09:56;;;;;;;2.97;2.78;;;;;;;;;;5078250;28;20207;-62
2022/11/06 02:12:39;;;;;;;2.80;2.60;;;;;;;;;;5078068;28;20231;-62
2022/11/06 02:15:10;;;;;;;3.08;2.88;;;;;;;;;;5077676;28;20254;-62
2022/11/06 02:17:42;;;;;;;2.90;2.70;;;;;;;;;;5078019;28;20204;-62
2022/11/06 02:20:13;;;;;;;3.30;3.00;;;;;;;;;;5077870;28;20228;-62
2022/11/06 02:22:53;;;;;;;3.25;3.00;;;;;;;;;;5098208;28;20203;-61
2022/11/06 02:25:25;;;;;;;3.00;2.80;;;;;;;;;;5097629;28;20211;-61
2022/11/06 02:27:56;;;;;;;2.67;2.47;;;;;;;;;;5077353;28;20204;-62
2022/11/06 02:30:24;;;;;;;2.90;2.70;;;;;;;;;;5077388;28;20208;-62
2022/11/06 02:32:55;;;;;;;3.00;2.80;;;;;;;;;;5077821;28;20570;-62
2022/11/06 02:35:25;;;;;;;2.90;2.70;;;;;;;;;;5077535;28;20314;-62
2022/11/06 02:37:55;;;;;;;3.00;2.80;;;;;;;;;;5077473;28;20593;-62
2022/11/06 02:40:24;;;;;;;3.00;2.80;;;;;;;;;;5077378;28;20495;-62
2022/11/06 02:42:54;;;;;;;2.80;2.60;;;;;;;;;;5077402;28;20240;-63
2022/11/06 02:45:24;;;;;;;2.95;2.75;;;;;;;;;;5077959;28;20508;-61
2022/11/06 02:47:54;;;;;;;2.50;2.30;;;;;;;;;;5089551;28;20568;-63
2022/11/06 02:50:23;;;;;;;3.10;2.83;;;;;;;;;;5097896;28;20203;-61
2022/11/06 02:52:53;;;;;;;3.00;2.80;;;;;;;;;;5097590;28;20296;-62
2022/11/06 02:55:24;;;;;;;2.78;2.58;;;;;;;;;;5097907;28;20222;-62
2022/11/06 02:57:54;;;;;;;2.78;2.58;;;;;;;;;;5097817;28;20268;-62
2022/11/06 03:00:26;;;;;;;2.97;2.72;;;;;;;;;;5097463;28;20231;-62
2022/11/06 03:02:56;;;;;;;2.90;2.70;;;;;;;;;;5097391;28;20237;-62
2022/11/06 03:05:27;;;;;;;3.05;2.78;;;;;;;;;;5097668;28;20530;-62
2022/11/06 03:07:57;;;;;;;3.00;2.80;;;;;;;;;;5097122;28;20265;-62
2022/11/06 03:10:27;;;;;;;3.40;2.75;;;;;;;;;;5097734;28;20247;-62
2022/11/06 03:12:56;;;;;;;2.75;2.55;;;;;;;;;;5097361;28;20528;-62
2022/11/06 03:15:28;;;;;;;3.10;2.80;;;;;;;;;;5097007;28;20610;-62
2022/11/06 03:18:00;;;;;;;2.85;2.65;;;;;;;;;;5097389;28;20203;-63
2022/11/06 03:20:30;;;;;;;3.08;2.88;;;;;;;;;;5097323;28;20300;-62
2022/11/06 03:23:01;;;;;;;3.10;2.90;;;;;;;;;;5097088;28;20215;-62
2022/11/06 03:25:31;;;;;;;3.20;2.90;;;;;;;;;;5097214;28;20204;-62
2022/11/06 03:28:02;;;;;;;2.90;2.70;;;;;;;;;;5097488;28;20204;-63
2022/11/06 03:30:33;;;;;;;3.08;2.88;;;;;;;;;;5099462;28;20203;-62
2022/11/06 03:33:03;;;;;;;2.72;2.50;;;;;;;;;;5101394;28;20546;-62
2022/11/06 03:35:35;;;;;;;3.22;2.92;;;;;;;;;;5101140;28;20589;-62
2022/11/06 03:38:05;;;;;;;2.80;2.45;;;;;;;;;;5100980;28;20203;-63
2022/11/06 03:40:35;;;;;;;3.00;2.80;;;;;;;;;;5101107;28;20215;-61
2022/11/06 03:43:03;;;;;;;3.13;2.78;;;;;;;;;;5101072;28;20247;-62
2022/11/06 03:45:33;;;;;;;3.10;2.80;;;;;;;;;;5101397;28;20226;-62
2022/11/06 03:48:03;;;;;;;2.90;2.70;;;;;;;;;;5101131;28;20300;-63
2022/11/06 03:50:32;;;;;;;2.88;2.67;;;;;;;;;;5100812;28;20264;-62
2022/11/06 03:53:04;;;;;;;2.88;2.67;;;;;;;;;;5100924;28;20211;-62
2022/11/06 03:55:33;;;;;;;2.88;2.67;;;;;;;;;;5100956;28;20589;-62
2022/11/06 03:58:04;;;;;;;2.88;2.67;;;;;;;;;;5101053;28;20565;-62
2022/11/06 04:00:35;;;;;;;3.25;2.95;;;;;;;;;;5101110;28;20246;-62
2022/11/06 04:03:06;;;;;;;2.67;2.47;;;;;;;;;;5100724;28;20269;-62
2022/11/06 04:05:36;;;;;;;2.90;2.70;;;;;;;;;;5100810;28;20210;-62
2022/11/06 04:16:25;;;;;;;2.88;2.67;;;;;;;;;;5100029;28;20260;-63
2022/11/06 04:18:52;;;;;;;2.60;2.40;;;;;;;;;;5100542;28;20585;-62
2022/11/06 04:21:25;;;;;;;3.38;3.15;;;;;;;;;;5099754;28;20246;-62
2022/11/06 04:26:51;;;;;;;2.72;2.53;;;;;;;;;;5099935;28;20199;-62
2022/11/06 04:29:21;;;;;;;2.85;2.65;;;;;;;;;;5100172;28;20200;-63
2022/11/06 04:31:56;;;;;;;2.50;2.33;;;;;;;;;;5099985;28;20286;-62
2022/11/06 04:34:28;;;;;;;2.78;2.58;;;;;;;;;;5100230;28;20528;-63
2022/11/06 04:37:00;;;;;;;2.80;2.60;;;;;;;;;;5100389;28;20203;-62
2022/11/06 04:39:30;;;;;;;2.97;2.78;;;;;;;;;;5099980;28;20447;-62
2022/11/06 04:42:02;;;;;;;2.78;2.58;;;;;;;;;;5099982;28;20211;-62
2022/11/06 04:44:32;;;;;;;2.70;2.50;;;;;;;;;;5100072;28;20474;-62
2022/11/06 04:47:03;;;;;;;2.53;2.42;;;;;;;;;;5099809;28;20208;-61
2022/11/06 04:49:33;;;;;;;2.72;2.53;;;;;;;;;;5099784;28;20272;-61
2022/11/06 04:52:03;;;;;;;2.65;2.47;;;;;;;;;;5099927;28;20207;-61
2022/11/06 04:54:31;;;;;;;2.70;2.50;;;;;;;;;;5099935;28;20208;-61
2022/11/06 04:57:00;;;;;;;2.80;2.55;;;;;;;;;;5100100;28;20265;-61
2022/11/06 04:59:27;;;;;;;2.60;2.40;;;;;;;;;;5099581;28;20211;-62
2022/11/06 05:01:55;;;;;;;2.70;2.50;;;;;;;;;;5098798;28;20265;-61
2022/11/06 05:04:24;;;;;;;2.60;2.40;;;;;;;;;;5099053;28;20283;-62
2022/11/06 05:06:51;;;;;;;2.60;2.40;;;;;;;;;;5099465;28;20211;-62
2022/11/06 05:09:18;;;;;;;3.10;2.90;;;;;;;;;;5099652;28;20243;-62
2022/11/06 05:11:46;;;;;;;2.78;2.58;;;;;;;;;;5099316;28;20290;-62
2022/11/06 05:14:13;;;;;;;2.83;2.63;;;;;;;;;;5099503;28;20490;-61
2022/11/06 05:16:41;;;;;;;2.50;2.30;;;;;;;;;;5099094;28;20543;-62
2022/11/06 05:19:08;;;;;;;2.75;2.55;;;;;;;;;;5099362;28;20593;-62
2022/11/06 05:24:22;;;;;;;2.58;2.38;;;;;;;;;;5098938;28;20222;-62
2022/11/06 05:26:49;;;;;;;2.85;2.50;;;;;;;;;;5099314;28;20651;-62
2022/11/06 05:29:16;;;;;;;2.78;2.58;;;;;;;;;;5098741;28;20206;-62
2022/11/06 05:31:44;;;;;;;2.78;2.58;;;;;;;;;;5098680;28;20226;-63
2022/11/06 05:34:11;;;;;;;2.58;2.38;;;;;;;;;;5099502;28;20199;-63
2022/11/06 05:36:41;;;;;;;2.60;2.40;;;;;;;;;;5099187;28;20449;-61
2022/11/06 05:39:08;;;;;;;2.58;2.38;;;;;;;;;;5098941;28;20196;-61
2022/11/06 05:41:35;;;;;;;2.72;2.47;;;;;;;;;;5098674;28;20206;-63
2022/11/06 05:44:03;;;;;;;3.47;2.60;;;;;;;;;;5098722;28;20227;-62
2022/11/06 05:46:31;;;;;;;2.63;2.42;;;;;;;;;;5098840;28;20207;-61
2022/11/06 05:48:58;;;;;;;2.72;2.53;;;;;;;;;;5098689;28;20204;-61
2022/11/06 05:51:25;;;;;;;2.65;2.45;;;;;;;;;;5098252;28;20668;-62
2022/11/06 05:53:55;;;;;;;2.65;2.45;;;;;;;;;;5098337;28;20203;-62
2022/11/06 05:56:23;;;;;;;2.65;2.45;;;;;;;;;;5098596;28;20196;-62
2022/11/06 05:58:50;;;;;;;2.50;2.30;;;;;;;;;;5098644;28;20814;-62
2022/11/06 06:01:17;;;;;;;2.47;2.28;;;;;;;;;;5098209;28;20226;-62
2022/11/06 06:03:45;;;;;;;2.70;2.50;;;;;;;;;;5090133;28;20208;-62
2022/11/06 06:06:12;;;;;;;2.53;2.33;;;;;;;;;;5098175;28;20204;-62
2022/11/06 06:08:39;;;;;;;2.60;2.40;;;;;;;;;;5098649;28;20210;-62
2022/11/06 06:11:08;;;;;;;2.72;2.53;;;;;;;;;;5098333;28;20485;-63
2022/11/06 06:13:37;;;;;;;2.80;2.60;;;;;;;;;;5098787;28;20204;-63
2022/11/06 06:16:05;;;;;;;2.47;2.28;;;;;;;;;;5098252;28;21198;-62
2022/11/06 06:18:32;;;;;;;2.70;2.50;;;;;;;;;;5098513;28;20276;-61
2022/11/06 06:20:59;;;;;;;2.58;2.38;;;;;;;;;;5098340;28;20235;-61
2022/11/06 06:23:27;;;;;;;2.50;2.30;;;;;;;;;;5097809;28;20200;-62
2022/11/06 06:25:54;;;;;;;2.65;2.45;;;;;;;;;;5098029;28;20243;-62
2022/11/06 06:28:23;;;;;;;2.22;2.03;;;;;;;;;;5097397;28;20294;-62
2022/11/06 06:30:51;;;;;;;2.60;2.40;;;;;;;;;;5097811;28;20203;-62
2022/11/06 06:33:18;;;;;;;2.70;2.50;;;;;;;;;;5097672;28;20294;-61
2022/11/06 06:35:45;;;;;;;2.38;2.25;;;;;;;;;;5097917;28;20199;-61
2022/11/06 06:38:13;;;;;;;2.33;2.22;;;;;;;;;;5098067;28;20508;-62
2022/11/06 06:40:40;;;;;;;2.40;2.20;;;;;;;;;;5097981;28;20238;-61
2022/11/06 06:43:08;;;;;;;2.17;2.08;;;;;;;;;;5097798;28;20207;-61
2022/11/06 06:45:36;;;;;;;2.30;2.20;;;;;;;;;;5097540;28;20223;-62
2022/11/06 06:48:04;;;;;;;2.20;2.08;;;;;;;;;;5097768;28;20214;-63
2022/11/06 06:50:31;;;;;;;2.15;2.05;;;;;;;;;;5097077;28;20196;-62
2022/11/06 06:52:59;;;;;;;2.35;2.17;;;;;;;;;;5097483;28;20496;-63
2022/11/06 06:55:28;;;;;;;2.25;2.10;;;;;;;;;;5097690;28;20203;-63
2022/11/06 06:57:59;;;;;;;2.60;2.40;;;;;;;;;;5095992;28;20211;-61
2022/11/06 07:00:27;;;;;;;2.55;2.35;;;;;;;;;;5097615;28;20550;-63
2022/11/06 07:02:56;;;;;;;2.35;2.17;;;;;;;;;;5097537;28;20203;-62
2022/11/06 07:05:23;;;;;;;2.50;2.30;;;;;;;;;;5099540;28;20227;-61
2022/11/06 07:07:51;;;;;;;2.10;2.00;;;;;;;;;;5101646;28;20207;-62
2022/11/06 07:10:18;;;;;;;2.65;2.45;;;;;;;;;;5101960;28;20213;-61
2022/11/06 07:12:46;;;;;;;2.10;2.00;;;;;;;;;;5093440;28;20585;-61
2022/11/06 07:15:13;;;;;;;2.15;2.05;;;;;;;;;;5101379;28;20199;-62
2022/11/06 07:17:41;;;;;;;2.30;2.10;;;;;;;;;;5101425;28;20556;-62
2022/11/06 07:20:10;;;;;;;2.40;2.20;;;;;;;;;;5101676;28;20640;-61
2022/11/06 07:22:38;;;;;;;2.20;2.10;;;;;;;;;;5101582;28;20199;-62
2022/11/06 07:25:05;;;;;;;2.25;2.10;;;;;;;;;;5101444;28;20228;-61
2022/11/06 07:27:33;;;;;;;2.45;2.28;;;;;;;;;;5101103;28;20243;-62
2022/11/06 07:30:01;;;;;;;2.40;2.20;;;;;;;;;;5101161;28;20203;-62
2022/11/06 07:32:30;;;;;;;2.17;2.08;;;;;;;;;;5101287;28;20207;-61
2022/11/06 07:34:57;;;;;;;2.10;2.00;;;;;;;;;;5101369;28;20280;-62
2022/11/06 07:37:27;;;;;;;2.40;2.30;;;;;;;;;;5101564;28;20302;-62
2022/11/06 07:39:54;;;;;;;2.15;2.05;;;;;;;;;;5082885;28;20200;-63
2022/11/06 07:42:22;;;;;;;2.05;1.95;;;;;;;;;;5080646;28;20217;-62
2022/11/06 07:44:53;;;;;;;1.95;1.85;;;;;;;;;;5081134;28;20230;-64
2022/11/06 07:47:20;;;;;;;2.10;2.00;;;;;;;;;;5080979;28;20269;-62
2022/11/06 07:49:47;;;;;;;2.10;2.00;;;;;;;;;;5079712;28;20236;-62
2022/11/06 07:52:15;;;;;;;2.20;2.10;;;;;;;;;;5079117;28;20207;-63
2022/11/06 07:54:43;;;;;;;2.25;2.15;;;;;;;;;;5080499;28;20588;-63
2022/11/06 07:57:11;;;;;;;2.47;2.28;;;;;;;;;;5080083;28;20215;-63
2022/11/06 07:59:38;;;;;;;2.58;2.38;;;;;;;;;;5079651;28;20201;-62
2022/11/06 08:02:06;;;;;;;2.70;2.33;;;;;;;;;;5080203;28;20234;-62
2022/11/06 08:04:33;;;;;;;2.78;2.20;;;;;;;;;;5080014;28;20250;-61
2022/11/06 08:07:00;;;;;;;2.45;2.25;;;;;;;;;;5080229;28;20483;-62
2022/11/06 08:09:28;;;;;;;2.53;2.33;;;;;;;;;;5079750;28;20201;-62
2022/11/06 08:11:57;;;;;;;2.78;2.22;;;;;;;;;;5080180;28;20207;-63
2022/11/06 08:14:24;;;;;;;2.35;1.90;;;;;;;;;;5080244;28;20204;-63
2022/11/06 08:16:51;;;;;;;2.60;2.40;;;;;;;;;;5079740;28;20218;-61
2022/11/06 08:19:19;;;;;;;2.67;2.28;;;;;;;;;;5079407;28;20295;-61
2022/11/06 08:21:46;;;;;;;2.40;2.20;;;;;;;;;;5093227;28;20239;-62
2022/11/06 08:24:14;;;;;;;2.50;2.30;;;;;;;;;;5100129;28;20203;-62
2022/11/06 08:26:41;;;;;;;2.75;2.55;;;;;;;;;;5099685;28;20663;-63
2022/11/06 08:29:10;;;;;;;2.80;2.60;;;;;;;;;;5090644;28;20211;-62
2022/11/06 08:31:37;;;;;;;2.80;2.10;;;;;;;;;;5079560;28;20204;-62
2022/11/06 08:34:05;;;;;;;2.63;2.30;;;;;;;;;;5079361;28;20200;-63
2022/11/06 08:36:33;;;;;;;2.80;2.58;;;;;;;;;;5078828;28;20207;-62
2022/11/06 08:39:00;;;;;;;2.38;2.17;;;;;;;;;;5086979;28;20218;-63
2022/11/06 08:41:27;;;;;;;2.60;2.40;;;;;;;;;;5099887;28;20223;-63
2022/11/06 08:43:55;;;;;;;3.03;2.20;;;;;;;;;;5099445;28;20584;-63
2022/11/06 08:46:23;;;;;;;2.67;2.47;;;;;;;;;;5099256;28;20234;-60
2022/11/06 08:48:51;;;;;;;3.17;2.67;;;;;;;;;;5093088;28;20215;-62
2022/11/06 08:51:18;;;;;;;2.80;2.50;;;;;;;;;;5079096;28;20204;-62
2022/11/06 08:53:45;;;;;;;3.13;2.40;;;;;;;;;;5078681;28;20204;-62
2022/11/06 08:56:13;;;;;;;3.40;2.33;;;;;;;;;;5078420;28;20574;-62
2022/11/06 08:58:40;;;;;;;3.30;2.55;;;;;;;;;;5082538;28;20503;-63
2022/11/06 09:01:08;;;;;;;2.58;2.38;;;;;;;;;;5098834;28;20210;-63
2022/11/06 09:03:36;;;;;;;4.28;2.38;;;;;;;;;;5098025;28;20214;-65
2022/11/06 09:06:06;;;;;;;2.58;2.38;;;;;;;;;;5098515;28;20322;-61
2022/11/06 09:08:33;;;;;;;2.42;2.22;;;;;;;;;;5095308;28;20196;-63
2022/11/06 09:11:01;;;;;;;2.63;2.42;;;;;;;;;;5078337;28;20212;-62
2022/11/06 09:13:28;;;;;;;3.25;2.25;;;;;;;;;;5078899;28;20219;-61
2022/11/06 09:15:55;;;;;;;3.22;2.28;;;;;;;;;;5078628;28;20210;-62
2022/11/06 09:18:23;;;;;;;2.40;2.20;;;;;;;;;;5079733;28;20240;-62
2022/11/06 09:20:54;;;;;;;2.80;2.47;;;;;;;;;;5092882;28;20275;-62
2022/11/06 09:23:21;;;;;;;3.97;2.30;;;;;;;;;;5078496;28;20212;-63
2022/11/06 09:25:49;;;;;;;2.33;2.13;;;;;;;;;;5078552;28;20228;-62
2022/11/06 09:28:17;;;;;;;2.40;2.20;;;;;;;;;;5077699;28;20208;-62
2022/11/06 09:30:44;;;;;;;2.75;2.30;;;;;;;;;;5078031;28;20475;-61
2022/11/06 09:33:12;;;;;;;2.63;2.33;;;;;;;;;;5078704;28;20215;-62
2022/11/06 09:35:39;;;;;;;3.63;2.38;;;;;;;;;;5077754;28;20468;-62
2022/11/06 09:38:08;;;;;;;2.88;2.50;;;;;;;;;;5078539;28;20204;-62
2022/11/06 09:40:37;;;;;;;2.90;2.58;;;;;;;;;;5096982;28;20204;-62
2022/11/06 09:43:12;;;;;;;2.50;2.30;;;;;;;;;;5098551;28;20204;-63
2022/11/06 09:45:41;;;;;;;2.80;2.47;;;;;;;;;;5099066;28;20237;-62
2022/11/06 09:48:14;;;;;;;2.55;2.35;;;;;;;;;;5098281;28;20204;-62
2022/11/06 09:50:43;;;;;;;3.13;2.08;;;;;;;;;;5057946;28;20443;-62
2022/11/06 09:53:16;;;;;;;4.38;2.38;;;;;;;;;;5058237;28;20205;-62
2022/11/06 09:55:44;;;;;;;2.47;2.28;;;;;;;;;;5057719;28;20201;-62
2022/11/06 09:58:14;;;;;;;2.33;2.10;;;;;;;;;;5057857;28;20212;-62
2022/11/06 10:00:42;;;;;;;2.75;2.20;;;;;;;;;;5097226;28;20200;-62
2022/11/06 10:03:14;;;;;;;4.68;2.55;;;;;;;;;;5097709;28;20204;-63
2022/11/06 10:05:42;;;;;;;2.67;2.40;;;;;;;;;;5098238;28;20619;-62
2022/11/06 10:08:15;;;;;;;4.40;2.35;;;;;;;;;;5097472;28;20199;-62
2022/11/06 10:10:47;;;;;;;4.07;2.42;;;;;;;;;;5096526;28;20204;-63
2022/11/06 10:13:20;;;;;;;3.70;2.20;;;;;;;;;;5097946;28;20208;-63
2022/11/06 10:15:51;;;;;;;3.90;2.20;;;;;;;;;;5097288;28;20203;-63
2022/11/06 10:18:22;;;;;;;2.70;2.13;;;;;;;;;;5097210;28;20209;-62
2022/11/06 10:20:52;;;;;;;2.40;2.10;;;;;;;;;;5056664;28;20324;-63
2022/11/06 10:23:26;;;;;;;2.60;2.40;;;;;;;;;;5056427;28;20213;-61
2022/11/06 10:25:59;;;;;;;2.55;2.35;;;;;;;;;;5056482;28;20225;-62
2022/11/06 10:28:35;;;;;;;3.20;2.50;;;;;;;;;;5057200;28;20205;-62
2022/11/06 10:31:07;;;;;;;2.97;2.50;;;;;;;;;;5076533;28;20482;-61
2022/11/06 10:33:38;;;;;;;3.03;2.60;;;;;;;;;;5076568;28;20202;-62
2022/11/06 10:36:07;;;;;;;2.90;2.60;;;;;;;;;;5076909;28;20496;-62
2022/11/06 10:38:37;;;;;;;3.08;2.78;;;;;;;;;;5075251;28;20204;-61
2022/11/06 10:41:05;;;;;;;2.80;2.45;;;;;;;;;;5078180;28;20207;-63
2022/11/06 10:43:35;;;;;;;2.70;2.50;;;;;;;;;;5075849;28;20208;-63
2022/11/06 10:46:07;;;;;;;3.50;2.47;;;;;;;;;;5076353;28;20247;-62
2022/11/06 10:48:38;;;;;;;2.70;2.50;;;;;;;;;;5075633;28;20204;-62
2022/11/06 10:51:23;;;;;;;2.60;2.40;;;;;;;;;;5075915;28;20200;-62
2022/11/06 10:53:57;;;;;;;3.25;2.80;;;;;;;;;;5076050;28;20214;-62
2022/11/06 10:56:33;;;;;;;2.50;2.30;;;;;;;;;;5077100;28;20200;-61
2022/11/06 10:59:01;;;;;;;2.60;2.35;;;;;;;;;;5076179;28;20574;-62
2022/11/06 11:01:29;;;;;;;20.60;15.18;;;;;;;;;;5076607;28;20204;-62
2022/11/06 11:03:56;;;;;;;39.05;26.52;;;;;;;;;;5076340;28;20214;-62
2022/11/06 11:06:24;;;;;;;48.92;33.22;;;;;;;;;;5075684;28;20224;-62
2022/11/06 11:08:52;;;;;;;33.65;23.15;;;;;;;;;;5075402;28;20197;-62
2022/11/06 11:11:22;;;;;;;26.63;20.33;;;;;;;;;;5075822;28;20204;-63
2022/11/06 11:13:50;;;;;;;23.27;17.55;;;;;;;;;;5076181;28;20212;-62
2022/11/06 11:16:20;;;;;;;20.70;16.42;;;;;;;;;;5076471;28;20197;-62
2022/11/06 11:18:47;;;;;;;18.42;14.40;;;;;;;;;;5075518;28;20204;-62
2022/11/06 11:21:16;;;;;;;19.77;13.25;;;;;;;;;;5085348;28;20261;-62
2022/11/06 11:23:43;;;;;;;16.98;12.45;;;;;;;;;;5096626;28;20200;-62
2022/11/06 11:26:24;;;;;;;14.85;11.70;;;;;;;;;;5096295;28;20255;-62
2022/11/06 11:28:53;;;;;;;17.05;10.80;;;;;;;;;;5096183;28;20286;-61
2022/11/06 11:31:21;;;;;;;14.70;10.55;;;;;;;;;;5094985;28;20200;-63
2022/11/06 11:33:51;;;;;;;16.65;10.68;;;;;;;;;;5096493;28;20666;-62
2022/11/06 11:36:19;;;;;;;17.08;10.20;;;;;;;;;;5095935;28;20203;-62
2022/11/06 11:38:46;;;;;;;16.23;9.48;;;;;;;;;;5093655;28;20213;-62
2022/11/06 11:41:15;;;;;;;19.13;10.40;;;;;;;;;;5075992;28;20298;-62
2022/11/06 11:43:44;;;;;;;16.67;9.85;;;;;;;;;;5076252;28;20296;-61
2022/11/06 11:46:21;;;;;;;12.85;9.13;;;;;;;;;;5074906;28;20632;-62
2022/11/06 11:48:49;;;;;;;14.35;9.52;;;;;;;;;;5077331;28;20208;-61
2022/11/06 11:51:23;;;;;;;14.93;8.95;;;;;;;;;;5095659;28;20196;-61
2022/11/06 11:53:51;;;;;;;13.82;8.23;;;;;;;;;;5098769;28;20199;-62
2022/11/06 11:56:20;;;;;;;11.13;7.57;;;;;;;;;;5098617;28;20223;-62
2022/11/06 11:58:52;;;;;;;12.15;7.68;;;;;;;;;;5097441;28;20230;-62
2022/11/06 12:01:20;;;;;;;12.77;7.47;;;;;;;;;;5079286;28;20206;-63
2022/11/06 12:03:51;;;;;;;11.18;7.53;;;;;;;;;;5078865;28;20317;-61
2022/11/06 12:06:19;;;;;;;11.57;7.35;;;;;;;;;;5078040;28;20707;-62
2022/11/06 12:08:48;;;;;;;10.32;6.93;;;;;;;;;;5079936;28;20204;-61
2022/11/06 12:11:16;;;;;;;9.68;6.55;;;;;;;;;;5098816;28;20203;-62
2022/11/06 12:13:44;;;;;;;12.98;7.15;;;;;;;;;;5098849;28;20364;-61
2022/11/06 12:16:15;;;;;;;8.57;6.18;;;;;;;;;;5099276;28;20200;-62
2022/11/06 12:18:44;;;;;;;9.95;6.60;;;;;;;;;;5098193;28;20573;-61
2022/11/06 12:21:14;;;;;;;7.97;5.68;;;;;;;;;;5078245;28;20240;-62
2022/11/06 12:23:44;;;;;;;8.45;5.88;;;;;;;;;;5077840;28;20210;-62
2022/11/06 12:26:26;;;;;;;8.95;6.07;;;;;;;;;;5077659;28;20621;-62
2022/11/06 12:28:56;;;;;;;7.50;5.55;;;;;;;;;;5078170;28;20223;-62
2022/11/06 12:31:37;;;;;;;9.20;5.80;;;;;;;;;;5098237;28;20199;-61
2022/11/06 12:34:07;;;;;;;7.70;5.18;;;;;;;;;;5098365;28;20210;-61
2022/11/06 12:36:38;;;;;;;6.85;5.10;;;;;;;;;;5098131;28;20204;-61
2022/11/06 12:39:11;;;;;;;6.88;4.97;;;;;;;;;;5094409;28;20250;-61
2022/11/06 12:41:40;;;;;;;7.90;4.88;;;;;;;;;;5077825;28;20196;-62
2022/11/06 12:44:10;;;;;;;7.15;4.90;;;;;;;;;;5078572;28;20582;-61
2022/11/06 12:46:44;;;;;;;4.97;3.95;;;;;;;;;;5078200;28;20247;-62
2022/11/06 12:49:18;;;;;;;5.63;4.78;;;;;;;;;;5076562;28;20196;-62
2022/11/06 12:51:52;;;;;;;6.68;4.57;;;;;;;;;;5076821;28;20198;-63
2022/11/06 12:54:30;;;;;;;5.47;4.57;;;;;;;;;;5077532;28;20781;-63
2022/11/06 12:57:02;;;;;;;7.75;4.95;;;;;;;;;;5077411;28;20251;-62
2022/11/06 12:59:38;;;;;;;7.22;4.63;;;;;;;;;;5076766;28;20215;-62
2022/11/06 13:02:16;;;;;;;6.68;4.45;;;;;;;;;;5076157;28;20208;-62
2022/11/06 13:04:51;;;;;;;5.47;3.85;;;;;;;;;;5077182;28;20206;-62
2022/11/06 13:07:33;;;;;;;5.20;3.95;;;;;;;;;;5076633;28;20224;-63
2022/11/06 13:10:09;;;;;;;5.43;3.83;;;;;;;;;;5098064;28;20203;-62
2022/11/06 13:12:40;;;;;;;6.00;3.92;;;;;;;;;;5097246;28;20199;-62
2022/11/06 13:15:13;;;;;;;5.03;3.55;;;;;;;;;;5098178;28;20195;-62
2022/11/06 13:17:43;;;;;;;4.75;3.67;;;;;;;;;;5094150;28;20196;-61
2022/11/06 13:20:15;;;;;;;5.47;3.85;;;;;;;;;;5089900;28;20192;-61
2022/11/06 13:22:45;;;;;;;4.07;3.63;;;;;;;;;;5076905;28;20215;-62
2022/11/06 13:25:16;;;;;;;4.38;3.95;;;;;;;;;;5076699;28;20204;-62
2022/11/06 13:27:47;;;;;;;4.75;3.78;;;;;;;;;;5076499;28;20228;-62
2022/11/06 13:30:16;;;;;;;3.92;3.42;;;;;;;;;;5077246;28;20204;-61
2022/11/06 13:32:46;;;;;;;4.13;3.22;;;;;;;;;;5076632;28;20200;-62
2022/11/06 13:35:15;;;;;;;3.72;3.15;;;;;;;;;;5076384;28;20204;-61
2022/11/06 13:37:44;;;;;;;3.50;3.20;;;;;;;;;;5076515;28;20265;-61
2022/11/06 13:40:20;;;;;;;4.03;3.47;;;;;;;;;;5077375;28;20215;-61
2022/11/06 13:42:50;;;;;;;4.13;3.25;;;;;;;;;;5077026;28;20204;-61
2022/11/06 13:45:18;;;;;;;5.30;3.10;;;;;;;;;;5079465;28;20296;-64
2022/11/06 13:47:55;;;;;;;6.07;3.40;;;;;;;;;;5079022;28;20270;-62
2022/11/06 13:50:27;;;;;;;4.18;2.88;;;;;;;;;;5078740;28;20215;-63
2022/11/06 13:52:55;;;;;;;4.28;2.92;;;;;;;;;;5077403;28;20204;-62
2022/11/06 13:55:26;;;;;;;3.10;2.80;;;;;;;;;;5077484;28;20211;-63
2022/11/06 13:58:13;;;;;;;5.22;2.90;;;;;;;;;;5076244;28;20219;-63
2022/11/06 14:00:46;;;;;;;3.53;3.15;;;;;;;;;;5076857;28;20323;-62
2022/11/06 14:03:25;;;;;;;3.50;3.15;;;;;;;;;;5076427;28;20579;-63
2022/11/06 14:05:54;;;;;;;4.15;3.22;;;;;;;;;;5075132;28;20850;-64
2022/11/06 14:08:24;;;;;;;3.20;2.90;;;;;;;;;;5075525;28;20513;-63
2022/11/06 14:10:57;;;;;;;3.70;2.72;;;;;;;;;;5075858;28;20503;-63
2022/11/06 14:13:26;;;;;;;2.97;2.63;;;;;;;;;;5075688;28;20205;-64
2022/11/06 14:16:00;;;;;;;3.15;2.70;;;;;;;;;;5075468;28;20208;-63
2022/11/06 14:18:29;;;;;;;2.92;2.70;;;;;;;;;;5075252;28;20206;-62
2022/11/06 14:21:14;;;;;;;3.00;2.70;;;;;;;;;;5081948;28;20242;-62
2022/11/06 14:23:53;;;;;;;2.92;2.63;;;;;;;;;;5095717;28;20464;-62
2022/11/06 14:26:35;;;;;;;3.85;2.60;;;;;;;;;;5094178;28;20214;-63
2022/11/06 14:29:18;;;;;;;2.97;2.67;;;;;;;;;;5094580;28;20478;-63
2022/11/06 14:32:00;;;;;;;3.00;2.60;;;;;;;;;;5094771;28;20566;-63
2022/11/06 14:34:30;;;;;;;3.90;2.53;;;;;;;;;;5095565;28;20213;-63
2022/11/06 14:36:57;;;;;;;2.67;2.47;;;;;;;;;;5095210;28;20200;-63
2022/11/06 14:39:40;;;;;;;3.78;2.97;;;;;;;;;;5095213;28;20204;-63
2022/11/06 14:42:07;;;;;;;2.78;2.50;;;;;;;;;;5095142;28;20207;-62
2022/11/06 14:44:43;;;;;;;2.60;2.40;;;;;;;;;;5095918;28;20214;-62
2022/11/06 14:47:24;;;;;;;3.05;2.38;;;;;;;;;;5095612;28;20266;-62
2022/11/06 14:49:54;;;;;;;3.38;2.40;;;;;;;;;;5095564;28;20203;-64
2022/11/06 14:52:22;;;;;;;2.30;2.10;;;;;;;;;;5094744;28;20196;-63
2022/11/06 14:54:55;;;;;;;2.40;2.20;;;;;;;;;;5094790;28;20214;-64
2022/11/06 14:57:35;;;;;;;2.55;2.35;;;;;;;;;;5078410;28;20192;-63
2022/11/06 15:00:02;;;;;;;2.42;2.22;;;;;;;;;;5075999;28;20204;-63
2022/11/06 15:02:31;;;;;;;2.40;2.20;;;;;;;;;;5083182;28;20196;-63
2022/11/06 15:05:02;;;;;;;2.40;2.20;;;;;;;;;;5095481;28;20207;-63
2022/11/06 15:07:35;;;;;;;2.97;2.17;;;;;;;;;;5095233;28;20224;-62
2022/11/06 15:10:02;;;;;;;2.30;2.10;;;;;;;;;;5095263;28;20203;-63
2022/11/06 15:12:48;;;;;;;2.45;2.25;;;;;;;;;;5094834;28;20200;-64